Terminal Aerodrome Forecast
Issued by NWS

Home | Current Version | Previous Version | Text Only | Print | Product List | Glossary On
Versions: 1 2 3 4 5 6 7 8 9 10 11 12 13 14 15
000
FTUS43 KILX 291100
TAFBMI
TAF
KBMI 291136Z 2912/3012 17008KT P6SM BKN200
     FM291700 18013KT P6SM VCTS SCT040CB BKN200
     FM300000 19008KT P6SM VCTS BKN035CB=

USA.gov is the U.S. government's official web portal to all federal, state and local government web resources and services.